VASU

Details ICAO VASU (STV)
Name SURAT
Region India
Timezone Asia/Kolkata (UTC+5.5)
Plans Departing 9
Arriving 11
Stats Elevation 16 ft / 5 m (AMSL)
Location 21.114060° 72.741790°
Runways 1
Magnetic Variation 0.151° E
Sunrise 2017-12-18 01:41:25 UTC / 2017-12-18 07:11:25 Local
Sunset 2017-12-18 12:32:23 UTC / 2017-12-18 18:02:23 Local
Advertisement - Login to hide

Runways

ID Width Length Bearing (true) Bearing (mag) Surface Threshold Offset Overrun Length
04 100 ft / 30 m 3,596 ft / 1,096 m 42.70° 42.55° Asphalt 0 ft / 0 m 0 ft / 0 m
22 100 ft / 30 m 3,596 ft / 1,096 m 222.70° 222.55° Asphalt 0 ft / 0 m 0 ft / 0 m

Map

Weather


0- 5 10 15 20 25 30 35+ Temperature / ° C

Clouds and Precipitation
Forecast for 2017-12-18 18:00 UTC. Updated 5 minutes ago

Ground ~20,000 ft ~40,000 ft Winds

METAR

VASU 181300Z 07005KT 6000 BKN080 28/14 Q1017

TAF

TAF VASU 180500Z 1806/1815 07007KT 6000 NSC FEW100 BECMG 1812/1814 02005KT 4000 FUHZ

Frequencies

Tower 123.50 MHz TWR
Warning: Do not use this data for real-world aviation or navigation. No guarantee of current accuracy is given.